createdAt,value
2023-04-24T00:00:46.289Z,91.16
2023-04-24T00:03:16.019Z,91.47
2023-04-24T00:05:44.936Z,91.15
2023-04-24T00:08:14.199Z,90.97
2023-04-24T00:10:42.606Z,90.53
2023-04-24T00:13:11.973Z,91.04
2023-04-24T00:15:40.399Z,90.42
2023-04-24T00:18:09.191Z,90.77
2023-04-24T00:20:40.032Z,90.62
2023-04-24T00:23:08.707Z,90.39
2023-04-24T00:25:37.237Z,90.34
2023-04-24T00:28:06.147Z,89.73
2023-04-24T00:30:34.554Z,89.98
2023-04-24T00:33:03.007Z,90.04
2023-04-24T00:35:32.030Z,90.03
2023-04-24T00:38:02.049Z,90.15
2023-04-24T00:40:31.440Z,90.69
2023-04-24T00:42:59.772Z,90.74
2023-04-24T00:45:27.932Z,90.59
2023-04-24T00:47:56.879Z,90.36
2023-04-24T00:50:26.594Z,90.53
2023-04-24T00:52:55.094Z,90.87
2023-04-24T00:55:25.689Z,90.17
2023-04-24T00:57:54.222Z,90.43
2023-04-24T01:00:23.495Z,90.16
2023-04-24T01:02:54.825Z,90.43
2023-04-24T01:05:23.217Z,90.47
2023-04-24T01:07:52.018Z,91.08
2023-04-24T01:10:22.160Z,90.90
2023-04-24T01:12:53.147Z,91.66
2023-04-24T01:15:21.772Z,90.92
2023-04-24T01:17:51.573Z,91.44
2023-04-24T01:20:20.503Z,90.75
2023-04-24T01:22:50.901Z,91.10
2023-04-24T01:25:19.352Z,90.82
2023-04-24T01:27:47.824Z,90.38
2023-04-24T01:30:17.280Z,90.89
2023-04-24T01:32:46.997Z,90.77
2023-04-24T01:35:15.635Z,91.52
2023-04-24T01:37:44.649Z,91.60
2023-04-24T01:40:14.849Z,91.32
2023-04-24T01:42:44.572Z,90.95
2023-04-24T01:45:13.824Z,91.07
2023-04-24T01:47:42.095Z,91.88
2023-04-24T01:50:12.180Z,91.98
2023-04-24T01:52:40.442Z,92.38
2023-04-24T01:55:09.857Z,92.23
2023-04-24T01:57:39.945Z,92.75
2023-04-24T02:00:09.568Z,92.94
2023-04-24T02:02:38.263Z,92.60
2023-04-24T02:05:09.807Z,92.33
2023-04-24T02:07:38.276Z,92.06
2023-04-24T02:10:07.672Z,93.00
2023-04-24T02:12:36.813Z,92.52
2023-04-24T02:15:07.671Z,92.19
2023-04-24T02:17:36.643Z,92.58
2023-04-24T02:20:05.800Z,93.16
2023-04-24T02:22:34.178Z,93.35
2023-04-24T02:25:03.259Z,93.10
2023-04-24T02:27:31.355Z,93.46
2023-04-24T02:29:59.867Z,94.41
2023-04-24T02:32:29.878Z,94.23
2023-04-24T02:34:57.999Z,93.96
2023-04-24T02:37:26.314Z,94.47
2023-04-24T02:39:55.011Z,94.28
2023-04-24T02:42:23.370Z,93.25
2023-04-24T02:44:52.414Z,93.16
2023-04-24T02:47:21.356Z,93.26
2023-04-24T02:49:50.799Z,93.17
2023-04-24T02:52:19.344Z,92.70
2023-04-24T02:54:48.240Z,92.91
2023-04-24T02:57:16.817Z,92.83
2023-04-24T02:59:45.504Z,93.75
2023-04-24T03:02:14.175Z,92.42
2023-04-24T03:04:44.124Z,93.05
2023-04-24T03:07:15.509Z,93.75
2023-04-24T03:09:51.116Z,94.70
2023-04-24T03:12:20.185Z,94.66
2023-04-24T03:14:48.226Z,94.23
2023-04-24T03:17:16.325Z,93.79
2023-04-24T03:19:45.067Z,93.28
2023-04-24T03:22:14.736Z,93.30
2023-04-24T03:24:43.209Z,93.69
2023-04-24T03:27:10.986Z,92.81
2023-04-24T03:29:39.301Z,93.31
2023-04-24T03:32:07.214Z,92.98
2023-04-24T03:34:35.946Z,93.49
2023-04-24T03:37:04.466Z,93.55
2023-04-24T03:39:33.689Z,93.43
2023-04-24T03:42:02.268Z,93.75
2023-04-24T03:44:30.462Z,93.92
2023-04-24T03:47:00.332Z,93.23
2023-04-24T03:49:28.941Z,93.30
2023-04-24T03:51:56.809Z,93.74
2023-04-24T03:54:24.780Z,93.58
2023-04-24T03:56:56.073Z,93.33
2023-04-24T03:59:24.963Z,92.89
2023-04-24T04:01:53.668Z,92.64
2023-04-24T04:04:22.431Z,93.06
2023-04-24T04:06:50.730Z,92.63
2023-04-24T04:09:19.615Z,92.77
2023-04-24T04:11:48.496Z,93.50
2023-04-24T04:14:17.866Z,93.01
2023-04-24T04:16:45.851Z,92.92
2023-04-24T04:19:15.965Z,92.60
2023-04-24T04:21:43.860Z,91.78
2023-04-24T04:24:11.849Z,91.10
2023-04-24T04:26:40.676Z,91.34
2023-04-24T04:29:08.939Z,91.75
2023-04-24T04:31:38.519Z,91.81
2023-04-24T04:34:07.358Z,91.40
2023-04-24T04:36:37.836Z,91.62
2023-04-24T04:39:06.762Z,90.57
2023-04-24T04:41:36.792Z,89.78
2023-04-24T04:44:05.848Z,90.03
2023-04-24T04:46:35.396Z,89.73
2023-04-24T04:49:05.517Z,89.15
2023-04-24T04:51:33.475Z,88.75
2023-04-24T04:54:02.457Z,88.92
2023-04-24T04:56:30.846Z,88.61
2023-04-24T04:59:00.048Z,88.58
2023-04-24T05:01:29.060Z,87.62
2023-04-24T05:03:57.875Z,87.61
2023-04-24T05:06:27.280Z,87.32
2023-04-24T05:08:58.643Z,87.08
2023-04-24T05:11:27.259Z,86.62
2023-04-24T05:13:55.516Z,86.44
2023-04-24T05:16:24.641Z,86.15
2023-04-24T05:18:53.278Z,85.88
2023-04-24T05:21:22.426Z,86.18
2023-04-24T05:23:52.076Z,85.38
2023-04-24T05:26:20.541Z,85.18
2023-04-24T05:28:49.343Z,84.64
2023-04-24T05:31:18.961Z,84.83
2023-04-24T05:33:47.258Z,84.42
2023-04-24T05:36:16.418Z,83.99
2023-04-24T05:38:44.664Z,83.53
2023-04-24T05:41:14.389Z,84.15
2023-04-24T05:43:43.337Z,81.59
2023-04-24T05:46:11.559Z,81.79
2023-04-24T05:48:40.155Z,81.13
2023-04-24T05:51:09.111Z,78.71
2023-04-24T05:53:37.785Z,78.47
2023-04-24T05:56:06.368Z,80.00
2023-04-24T05:58:37.100Z,78.75
2023-04-24T06:01:09.682Z,78.15
2023-04-24T06:03:39.682Z,77.10
2023-04-24T06:06:09.400Z,76.24
2023-04-24T06:08:38.505Z,77.76
2023-04-24T06:11:06.772Z,75.75
2023-04-24T06:13:37.093Z,74.82
2023-04-24T06:16:06.297Z,73.99
2023-04-24T06:18:34.873Z,71.75
2023-04-24T06:21:03.070Z,72.29
2023-04-24T06:23:33.958Z,72.29
2023-04-24T06:26:02.694Z,73.86
2023-04-24T06:28:30.716Z,71.85
2023-04-24T06:31:01.265Z,72.78
2023-04-24T06:33:29.824Z,70.08
2023-04-24T06:35:58.719Z,68.00
2023-04-24T06:38:26.824Z,68.86
2023-04-24T06:40:55.540Z,67.77
2023-04-24T06:43:26.176Z,65.53
2023-04-24T06:45:54.355Z,70.84
2023-04-24T06:48:24.022Z,68.81
2023-04-24T06:50:53.185Z,69.22
2023-04-24T06:53:21.728Z,70.75
2023-04-24T06:55:50.285Z,71.14
2023-04-24T06:58:19.271Z,69.15
2023-04-24T07:00:47.958Z,70.85
2023-04-24T07:03:16.242Z,72.64
2023-04-24T07:05:47.857Z,76.69
2023-04-24T07:08:18.123Z,77.17
2023-04-24T07:10:46.912Z,80.85
2023-04-24T07:13:15.328Z,81.97
2023-04-24T07:15:44.140Z,81.80
2023-04-24T07:18:13.013Z,82.56
2023-04-24T07:20:41.493Z,83.98
2023-04-24T07:23:11.072Z,85.16
2023-04-24T07:25:40.502Z,85.07
2023-04-24T07:28:09.278Z,85.69
2023-04-24T07:30:37.500Z,85.80
2023-04-24T07:33:06.283Z,84.69
2023-04-24T07:35:36.215Z,83.06
2023-04-24T07:38:04.587Z,80.03
2023-04-24T07:40:34.461Z,81.23
2023-04-24T07:43:06.176Z,76.32
2023-04-24T07:45:37.331Z,74.46
2023-04-24T07:48:06.627Z,66.09
2023-04-24T07:50:35.888Z,68.82
2023-04-24T07:53:04.645Z,66.77
2023-04-24T07:55:35.406Z,65.04
2023-04-24T07:58:04.387Z,64.64
2023-04-24T08:00:32.817Z,65.28
2023-04-24T08:03:02.425Z,62.92
2023-04-24T08:05:31.394Z,62.89
2023-04-24T08:07:59.508Z,65.65
2023-04-24T08:10:28.336Z,65.90
2023-04-24T08:12:58.116Z,66.76
2023-04-24T08:15:26.897Z,61.95
2023-04-24T08:17:57.222Z,57.31
2023-04-24T08:20:27.555Z,51.00
2023-04-24T08:22:56.757Z,51.95
2023-04-24T08:25:26.565Z,55.63
2023-04-24T08:27:55.824Z,51.37
2023-04-24T08:30:27.032Z,52.54
2023-04-24T08:32:56.136Z,51.10
2023-04-24T08:35:24.782Z,50.60
2023-04-24T08:37:56.235Z,49.90
2023-04-24T08:40:32.014Z,49.50
2023-04-24T08:43:01.921Z,49.58
2023-04-24T08:45:31.719Z,47.68
2023-04-24T08:48:00.652Z,46.63
2023-04-24T08:50:32.482Z,46.56
2023-04-24T08:53:03.430Z,45.12
2023-04-24T08:55:36.116Z,46.02
2023-04-24T08:58:05.615Z,44.24
2023-04-24T09:00:48.215Z,44.23
2023-04-24T09:03:18.536Z,40.84
2023-04-24T09:05:51.348Z,41.31
2023-04-24T09:08:21.906Z,39.85
2023-04-24T09:10:51.276Z,41.57
2023-04-24T09:13:21.978Z,40.67
2023-04-24T09:15:52.229Z,37.99
2023-04-24T09:18:22.585Z,37.83
2023-04-24T09:21:01.290Z,38.31
2023-04-24T09:23:31.040Z,40.25
2023-04-24T09:26:01.109Z,40.79
2023-04-24T09:28:32.830Z,41.17
2023-04-24T09:31:10.937Z,40.15
2023-04-24T09:33:39.777Z,42.07
2023-04-24T09:36:08.502Z,42.13
2023-04-24T09:38:37.731Z,43.28
2023-04-24T09:41:08.817Z,43.95
2023-04-24T09:43:37.849Z,44.75
2023-04-24T09:46:11.639Z,44.97
2023-04-24T09:48:40.146Z,42.16
2023-04-24T09:51:12.220Z,41.35
2023-04-24T09:53:41.487Z,41.62
2023-04-24T09:56:14.103Z,41.24
2023-04-24T09:58:42.250Z,41.32
2023-04-24T10:01:11.725Z,40.22
2023-04-24T10:03:40.265Z,38.55
2023-04-24T10:06:11.161Z,38.05
2023-04-24T10:08:40.169Z,38.40
2023-04-24T10:11:12.516Z,38.58
2023-04-24T10:13:42.729Z,39.13
2023-04-24T10:16:14.309Z,39.91
2023-04-24T10:18:43.301Z,40.34
2023-04-24T10:21:12.296Z,41.20
2023-04-24T10:23:42.842Z,39.07
2023-04-24T10:26:13.193Z,39.18
2023-04-24T10:28:43.981Z,39.72
2023-04-24T10:31:15.067Z,39.27
2023-04-24T10:33:45.387Z,38.89
2023-04-24T10:36:16.091Z,40.23
2023-04-24T10:38:50.320Z,40.21
2023-04-24T10:41:24.505Z,40.21
2023-04-24T10:44:07.758Z,40.40
2023-04-24T10:46:39.504Z,38.41
2023-04-24T10:49:10.133Z,38.71
2023-04-24T10:51:49.841Z,39.40
2023-04-24T10:54:32.182Z,39.72
2023-04-24T10:57:30.427Z,39.75
2023-04-24T11:00:21.153Z,39.49
2023-04-24T11:02:54.014Z,38.40
2023-04-24T11:05:24.799Z,38.38
2023-04-24T11:08:15.605Z,40.95
2023-04-24T11:10:47.444Z,42.21
2023-04-24T11:13:18.555Z,41.84
2023-04-24T11:15:47.713Z,43.73
2023-04-24T11:18:18.024Z,45.72
2023-04-24T11:20:47.114Z,45.50
2023-04-24T11:23:16.192Z,44.52
2023-04-24T11:25:44.891Z,42.22
2023-04-24T11:28:18.965Z,40.38
2023-04-24T11:30:47.191Z,39.22
2023-04-24T11:33:24.148Z,37.22
2023-04-24T11:36:00.336Z,36.11
2023-04-24T11:38:35.878Z,36.00
2023-04-24T11:41:06.809Z,34.09
2023-04-24T11:43:36.675Z,34.48
2023-04-24T11:46:06.456Z,33.22
2023-04-24T11:48:41.681Z,31.09
2023-04-24T11:51:09.941Z,32.30
2023-04-24T11:53:39.863Z,32.54
2023-04-24T11:56:08.814Z,33.19
2023-04-24T11:58:37.732Z,33.72
2023-04-24T12:01:06.995Z,33.00
2023-04-24T12:03:35.822Z,31.83
2023-04-24T12:06:13.090Z,32.68
2023-04-24T12:08:42.163Z,33.41
2023-04-24T12:11:10.820Z,32.65
2023-04-24T12:13:39.057Z,32.89
2023-04-24T12:16:07.917Z,33.54
2023-04-24T12:18:36.246Z,35.86
2023-04-24T12:21:31.920Z,35.54
2023-04-24T12:24:00.518Z,36.11
2023-04-24T12:26:30.138Z,38.59
2023-04-24T12:29:04.033Z,39.78
2023-04-24T12:31:33.315Z,40.56
2023-04-24T12:34:01.474Z,41.30
2023-04-24T12:36:31.328Z,40.09
2023-04-24T12:38:59.695Z,40.89
2023-04-24T12:41:28.456Z,40.52
2023-04-24T12:43:57.494Z,38.00
2023-04-24T12:46:25.742Z,36.78
2023-04-24T12:48:54.220Z,36.53
2023-04-24T12:51:23.024Z,37.20
2023-04-24T12:53:55.414Z,36.11
2023-04-24T12:56:25.286Z,36.24
2023-04-24T12:58:53.520Z,37.53
2023-04-24T13:01:22.184Z,36.99
2023-04-24T13:03:51.073Z,37.96
2023-04-24T13:06:19.304Z,37.73
2023-04-24T13:08:48.342Z,38.74
2023-04-24T13:11:18.332Z,39.17
2023-04-24T13:13:46.534Z,40.78
2023-04-24T13:16:14.546Z,40.16
2023-04-24T13:18:43.063Z,38.88
2023-04-24T13:21:11.188Z,39.78
2023-04-24T13:23:39.542Z,39.93
2023-04-24T13:26:08.657Z,40.42
2023-04-24T13:28:39.388Z,41.57
2023-04-24T13:31:08.616Z,40.00
2023-04-24T13:33:37.110Z,39.88
2023-04-24T13:36:05.440Z,40.29
2023-04-24T13:38:34.040Z,41.40
2023-04-24T13:41:03.020Z,41.66
2023-04-24T13:43:31.148Z,41.68
2023-04-24T13:46:03.479Z,41.70
2023-04-24T13:48:34.641Z,41.18
2023-04-24T13:51:03.814Z,41.04
2023-04-24T13:53:32.031Z,39.63
2023-04-24T13:56:00.291Z,39.51
2023-04-24T13:58:29.110Z,38.63
2023-04-24T14:00:57.783Z,39.21
2023-04-24T14:03:27.483Z,37.64
2023-04-24T14:05:56.324Z,38.30
2023-04-24T14:08:24.850Z,38.71
2023-04-24T14:10:53.087Z,39.65
2023-04-24T14:13:22.384Z,39.97
2023-04-24T14:15:50.508Z,39.20
2023-04-24T14:18:18.765Z,39.59
2023-04-24T14:20:48.760Z,39.78
2023-04-24T14:23:18.511Z,40.05
2023-04-24T14:25:47.040Z,39.89
2023-04-24T14:28:15.728Z,40.09
2023-04-24T14:30:44.413Z,40.15
2023-04-24T14:33:22.096Z,39.64
2023-04-24T14:35:53.138Z,39.84
2023-04-24T14:38:24.168Z,41.08
2023-04-24T14:43:30.652Z,41.51
2023-04-24T14:46:00.891Z,42.93
2023-04-24T14:48:37.377Z,41.69
2023-04-24T14:51:09.612Z,40.82
2023-04-24T14:57:26.258Z,49.45
2023-04-24T14:59:56.466Z,53.71
2023-04-24T15:02:25.305Z,59.24
2023-04-24T15:04:54.673Z,66.34
2023-04-24T15:07:27.199Z,72.90
2023-04-24T15:09:56.202Z,76.90
2023-04-24T15:12:24.252Z,78.14
2023-04-24T15:14:52.514Z,80.86
2023-04-24T15:17:21.390Z,80.70
2023-04-24T15:19:49.735Z,83.56
2023-04-24T15:22:18.169Z,83.86
2023-04-24T15:24:48.024Z,84.24
2023-04-24T15:27:16.165Z,79.65
2023-04-24T15:29:44.459Z,80.07
2023-04-24T15:32:13.601Z,81.20
2023-04-24T15:34:41.787Z,82.70
2023-04-24T15:37:10.083Z,78.72
2023-04-24T15:39:39.762Z,82.54
2023-04-24T15:42:09.823Z,81.49
2023-04-24T15:44:38.953Z,76.26
2023-04-24T15:47:07.305Z,80.22
2023-04-24T15:49:36.054Z,76.81
2023-04-24T15:52:04.835Z,73.43
2023-04-24T15:54:33.693Z,75.78
2023-04-24T15:57:02.061Z,76.01
2023-04-24T15:59:33.727Z,76.91
2023-04-24T16:02:02.601Z,76.17
2023-04-24T16:04:30.986Z,74.29
2023-04-24T16:07:00.207Z,73.46
2023-04-24T16:09:28.601Z,72.81
2023-04-24T16:11:56.851Z,73.53
2023-04-24T16:14:26.254Z,73.64
2023-04-24T16:16:56.697Z,69.89
2023-04-24T16:19:25.144Z,69.42
2023-04-24T16:21:55.929Z,73.10
2023-04-24T16:24:24.774Z,73.88
2023-04-24T16:26:54.713Z,74.64
2023-04-24T16:29:23.017Z,78.03
2023-04-24T16:31:52.272Z,78.85
2023-04-24T16:34:22.421Z,78.98
2023-04-24T16:36:51.228Z,79.49
2023-04-24T16:39:19.640Z,77.48
2023-04-24T16:41:49.772Z,78.58
2023-04-24T16:44:19.729Z,78.52
2023-04-24T16:46:48.225Z,77.41
2023-04-24T16:49:16.360Z,75.33
2023-04-24T16:51:46.502Z,76.63
2023-04-24T16:54:14.677Z,77.87
2023-04-24T16:56:42.959Z,76.35
2023-04-24T16:59:11.661Z,74.15
2023-04-24T17:01:39.902Z,74.97
2023-04-24T17:04:08.161Z,77.00
2023-04-24T17:06:37.159Z,72.39
2023-04-24T17:09:06.502Z,73.90
2023-04-24T17:11:34.914Z,73.17
2023-04-24T17:14:03.613Z,71.01
2023-04-24T17:16:31.559Z,74.33
2023-04-24T17:18:59.770Z,73.77
2023-04-24T17:21:28.511Z,72.63
2023-04-24T17:23:56.535Z,75.37
2023-04-24T17:26:25.935Z,73.22
2023-04-24T17:28:55.810Z,73.49
2023-04-24T17:31:24.079Z,71.02
2023-04-24T17:33:52.540Z,71.72
2023-04-24T17:36:21.243Z,71.46
2023-04-24T17:38:49.932Z,70.84
2023-04-24T17:41:18.657Z,70.85
2023-04-24T17:43:48.466Z,69.95
2023-04-24T17:46:16.610Z,70.03
2023-04-24T17:48:46.180Z,71.69
2023-04-24T17:51:15.996Z,70.59
2023-04-24T17:53:44.794Z,70.52
2023-04-24T17:56:13.213Z,72.87
2023-04-24T17:58:42.064Z,72.42
2023-04-24T18:01:11.886Z,72.88
2023-04-24T18:03:40.141Z,75.77
2023-04-24T18:06:10.985Z,75.30
2023-04-24T18:08:39.280Z,74.17
2023-04-24T18:11:07.728Z,76.02
2023-04-24T18:13:35.894Z,75.90
2023-04-24T18:16:04.306Z,76.29
2023-04-24T18:18:34.259Z,74.84
2023-04-24T18:21:03.301Z,74.36
2023-04-24T18:23:31.648Z,76.42
2023-04-24T18:26:00.065Z,75.39
2023-04-24T18:28:31.375Z,75.21
2023-04-24T18:31:00.756Z,74.70
2023-04-24T18:33:28.759Z,74.95
2023-04-24T18:35:58.456Z,72.61
2023-04-24T18:38:27.569Z,73.54
2023-04-24T18:40:55.746Z,72.85
2023-04-24T18:43:23.708Z,72.34
2023-04-24T18:45:52.424Z,72.63
2023-04-24T18:48:20.536Z,73.81
2023-04-24T18:50:48.664Z,72.88
2023-04-24T18:53:18.854Z,74.59
2023-04-24T18:55:46.971Z,74.73
2023-04-24T18:58:15.068Z,73.95
2023-04-24T19:00:43.945Z,73.60
2023-04-24T19:03:12.301Z,72.92
2023-04-24T19:05:40.692Z,74.12
2023-04-24T19:08:09.267Z,76.47
2023-04-24T19:10:38.646Z,76.44
2023-04-24T19:13:06.947Z,76.60
2023-04-24T19:15:35.643Z,76.76
2023-04-24T19:18:04.044Z,77.55
2023-04-24T19:20:32.132Z,78.01
2023-04-24T19:23:00.585Z,78.62
2023-04-24T19:25:28.785Z,78.31
2023-04-24T19:27:58.235Z,79.13
2023-04-24T19:30:26.649Z,78.99
2023-04-24T19:32:55.088Z,80.08
2023-04-24T19:35:23.489Z,80.52
2023-04-24T19:37:52.088Z,80.52
2023-04-24T19:40:20.915Z,79.97
2023-04-24T19:42:49.653Z,80.38
2023-04-24T19:45:19.476Z,80.17
2023-04-24T19:47:47.930Z,80.16
2023-04-24T19:50:16.963Z,79.52
2023-04-24T19:52:45.802Z,80.22
2023-04-24T19:55:14.353Z,79.77
2023-04-24T19:57:42.532Z,79.84
2023-04-24T20:00:12.360Z,80.68
2023-04-24T20:02:42.641Z,81.65
2023-04-24T20:05:11.792Z,81.56
2023-04-24T20:07:40.564Z,81.78
2023-04-24T20:10:09.760Z,81.93
2023-04-24T20:12:37.836Z,81.51
2023-04-24T20:15:07.094Z,81.12
2023-04-24T20:17:35.242Z,80.94
2023-04-24T20:20:05.025Z,80.67
2023-04-24T20:22:39.232Z,80.48
2023-04-24T20:25:08.821Z,80.20
2023-04-24T20:27:37.580Z,79.06
2023-04-24T20:30:06.966Z,78.53
2023-04-24T20:32:35.831Z,80.15
2023-04-24T20:35:05.856Z,81.37
2023-04-24T20:37:34.794Z,81.22
2023-04-24T20:40:05.579Z,80.59
2023-04-24T20:42:33.701Z,81.24
2023-04-24T20:45:02.932Z,81.32
2023-04-24T20:47:31.625Z,81.40
2023-04-24T20:50:02.406Z,81.50
2023-04-24T20:52:31.816Z,81.39
2023-04-24T20:54:59.946Z,81.00
2023-04-24T20:57:28.505Z,81.60
2023-04-24T20:59:56.832Z,80.74
2023-04-24T21:02:25.066Z,79.93
2023-04-24T21:04:53.809Z,79.87
2023-04-24T21:07:21.968Z,79.84
2023-04-24T21:09:51.777Z,79.48
2023-04-24T21:12:20.378Z,79.52
2023-04-24T21:14:50.939Z,80.21
2023-04-24T21:17:19.295Z,79.75
2023-04-24T21:19:48.687Z,78.95
2023-04-24T21:22:16.811Z,78.61
2023-04-24T21:24:44.868Z,78.60
2023-04-24T21:27:15.110Z,78.31
2023-04-24T21:29:43.576Z,78.57
2023-04-24T21:32:11.810Z,78.03
2023-04-24T21:34:40.144Z,78.54
2023-04-24T21:37:08.131Z,78.21
2023-04-24T21:39:36.319Z,78.02
2023-04-24T21:42:05.130Z,78.04
2023-04-24T21:44:34.703Z,78.76
2023-04-24T21:47:02.708Z,79.37
2023-04-24T21:49:31.141Z,79.33
2023-04-24T21:51:59.022Z,79.47
2023-04-24T21:54:27.088Z,78.32
2023-04-24T21:56:55.592Z,77.96
2023-04-24T21:59:24.747Z,78.40
2023-04-24T22:01:54.107Z,79.01
2023-04-24T22:04:23.456Z,79.47
2023-04-24T22:06:53.369Z,79.17
2023-04-24T22:09:21.614Z,79.07
2023-04-24T22:11:50.926Z,80.02
2023-04-24T22:14:19.183Z,78.96
2023-04-24T22:16:47.849Z,78.51
2023-04-24T22:19:18.169Z,79.23
2023-04-24T22:21:46.804Z,78.58
2023-04-24T22:24:15.210Z,78.56
2023-04-24T22:26:44.396Z,78.92
2023-04-24T22:29:12.994Z,77.79
2023-04-24T22:31:42.029Z,77.70
2023-04-24T22:34:10.286Z,78.38
2023-04-24T22:36:39.862Z,78.24
2023-04-24T22:39:08.869Z,78.85
2023-04-24T22:41:36.972Z,78.73
2023-04-24T22:44:05.315Z,77.88
2023-04-24T22:46:33.999Z,78.06
2023-04-24T22:49:02.708Z,78.54
2023-04-24T22:51:34.187Z,78.46
2023-04-24T22:54:06.020Z,78.25
2023-04-24T22:56:36.399Z,77.28
2023-04-24T22:59:05.097Z,77.83
2023-04-24T23:01:33.284Z,77.93
2023-04-24T23:04:01.832Z,78.26
2023-04-24T23:06:30.911Z,78.52
2023-04-24T23:08:59.562Z,77.43
2023-04-24T23:11:29.723Z,77.93
2023-04-24T23:13:58.018Z,77.65
2023-04-24T23:16:26.363Z,77.11
2023-04-24T23:18:55.390Z,77.67
2023-04-24T23:21:23.853Z,77.86
2023-04-24T23:23:52.853Z,77.69
2023-04-24T23:26:21.614Z,77.22
2023-04-24T23:28:51.219Z,78.19
2023-04-24T23:31:19.350Z,77.82
2023-04-24T23:33:48.246Z,77.86
2023-04-24T23:36:17.140Z,78.18
2023-04-24T23:38:50.047Z,77.04
2023-04-24T23:41:18.939Z,77.21
2023-04-24T23:43:47.611Z,77.62
2023-04-24T23:46:17.274Z,77.06
2023-04-24T23:48:45.213Z,78.02
2023-04-24T23:51:13.754Z,78.08
2023-04-24T23:53:42.047Z,78.46
2023-04-24T23:56:10.395Z,78.21
2023-04-24T23:58:39.203Z,78.01
